createdAt,value
2018-11-20T00:01:06.423Z,19.92
2018-11-20T00:03:52.205Z,30.62
2018-11-20T00:06:38.076Z,25.75
2018-11-20T00:09:23.346Z,16.20
2018-11-20T00:12:19.585Z,15.80
2018-11-20T00:14:56.644Z,14.28
2018-11-20T00:17:42.713Z,17.33
2018-11-20T00:20:32.394Z,22.90
2018-11-20T00:23:18.244Z,27.33
2018-11-20T00:26:19.604Z,56.20
2018-11-20T00:29:12.864Z,18.73
2018-11-20T00:32:02.967Z,16.30
2018-11-20T00:34:55.459Z,15.80
2018-11-20T00:37:45.578Z,14.85
2018-11-20T00:40:24.970Z,16.42
2018-11-20T00:43:19.343Z,16.40
2018-11-20T00:46:05.557Z,16.40
2018-11-20T00:48:51.537Z,16.30
2018-11-20T00:51:37.347Z,16.48
2018-11-20T00:54:19.233Z,16.90
2018-11-20T00:57:05.167Z,16.95
2018-11-20T00:59:50.907Z,17.02
2018-11-20T01:02:45.458Z,16.27
2018-11-20T01:05:29.476Z,16.48
2018-11-20T01:08:15.340Z,17.02
2018-11-20T01:11:01.184Z,16.62
2018-11-20T01:13:49.515Z,17.55
2018-11-20T01:16:30.771Z,16.48
2018-11-20T01:19:20.313Z,18.80
2018-11-20T01:22:03.981Z,17.20
2018-11-20T01:24:50.793Z,19.23
2018-11-20T01:27:56.044Z,16.30
2018-11-20T01:30:41.682Z,16.35
2018-11-20T01:33:27.714Z,17.40
2018-11-20T01:36:12.691Z,22.40
2018-11-20T01:38:48.678Z,18.90
2018-11-20T01:41:34.481Z,20.75
2018-11-20T01:44:23.801Z,21.85
2018-11-20T01:47:09.723Z,20.57
2018-11-20T01:50:05.893Z,18.55
2018-11-20T01:52:59.215Z,17.37
2018-11-20T01:55:50.855Z,18.52
2018-11-20T01:58:41.131Z,19.23
2018-11-20T02:01:27.081Z,19.32
2018-11-20T02:04:14.431Z,17.35
2018-11-20T02:06:51.423Z,17.67
2018-11-20T02:09:38.349Z,21.25
2018-11-20T02:12:24.137Z,17.30
2018-11-20T02:15:18.295Z,18.82
2018-11-20T02:18:18.190Z,20.57
2018-11-20T02:21:06.053Z,19.25
2018-11-20T02:23:46.707Z,18.02
2018-11-20T02:26:32.353Z,22.60
2018-11-20T02:29:28.636Z,19.90
2018-11-20T02:32:21.824Z,21.40
2018-11-20T02:35:16.017Z,20.60
2018-11-20T02:38:01.800Z,20.65
2018-11-20T02:40:49.302Z,19.10
2018-11-20T02:43:42.427Z,22.52
2018-11-20T02:46:28.529Z,21.73
2018-11-20T02:49:21.620Z,21.05
2018-11-20T02:52:06.304Z,21.93
2018-11-20T02:55:02.777Z,19.25
2018-11-20T02:57:48.808Z,20.77
2018-11-20T03:00:36.710Z,18.90
2018-11-20T03:03:32.442Z,20.60
2018-11-20T03:06:20.404Z,18.73
2018-11-20T03:09:06.223Z,17.90
2018-11-20T03:11:57.896Z,17.77
2018-11-20T03:14:53.901Z,19.65
2018-11-20T03:17:47.084Z,18.40
2018-11-20T03:20:44.491Z,19.55
2018-11-20T03:23:26.159Z,19.77
2018-11-20T03:26:17.114Z,18.10
2018-11-20T03:29:12.343Z,18.20
2018-11-20T03:32:00.579Z,19.25
2018-11-20T03:34:53.620Z,17.80
2018-11-20T03:37:30.257Z,17.67
2018-11-20T03:40:11.655Z,18.62
2018-11-20T03:42:57.745Z,16.80
2018-11-20T03:45:48.612Z,17.65
2018-11-20T03:48:35.878Z,17.27
2018-11-20T03:51:34.163Z,17.52
2018-11-20T03:54:17.844Z,17.80
2018-11-20T03:56:53.580Z,19.07
2018-11-20T03:59:38.133Z,17.30
2018-11-20T04:02:27.039Z,16.80
2018-11-20T04:05:12.929Z,20.70
2018-11-20T04:08:13.386Z,18.67
2018-11-20T04:11:12.664Z,19.37
2018-11-20T04:13:54.449Z,19.57
2018-11-20T04:16:45.090Z,16.95
2018-11-20T04:19:34.781Z,16.85
2018-11-20T04:22:20.991Z,15.55
2018-11-20T04:25:07.182Z,18.12
2018-11-20T04:27:48.005Z,18.43
2018-11-20T04:31:19.494Z,17.40
2018-11-20T04:34:11.030Z,16.95
2018-11-20T04:36:56.975Z,18.90
2018-11-20T04:39:47.803Z,17.95
2018-11-20T04:42:45.189Z,19.37
2018-11-20T04:45:44.648Z,18.27
2018-11-20T04:48:30.630Z,18.00
2018-11-20T04:51:08.273Z,18.00
2018-11-20T04:53:54.699Z,17.70
2018-11-20T04:56:43.046Z,16.73
2018-11-20T04:59:30.367Z,17.87
2018-11-20T05:02:26.484Z,16.42
2018-11-20T05:05:12.530Z,18.70
2018-11-20T05:08:12.269Z,18.80
2018-11-20T05:11:23.924Z,19.65
2018-11-20T05:14:21.566Z,17.00
2018-11-20T05:17:16.671Z,19.10
2018-11-20T05:20:03.689Z,18.40
2018-11-20T05:22:53.648Z,19.60
2018-11-20T05:25:40.866Z,18.07
2018-11-20T05:28:17.384Z,20.32
2018-11-20T05:31:10.017Z,20.20
2018-11-20T05:33:55.595Z,18.23
2018-11-20T05:36:37.021Z,19.23
2018-11-20T05:39:26.172Z,18.67
2018-11-20T05:42:11.823Z,19.70
2018-11-20T05:45:05.550Z,18.20
2018-11-20T05:47:49.657Z,20.57
2018-11-20T05:50:36.736Z,19.13
2018-11-20T05:53:21.948Z,18.20
2018-11-20T05:56:18.214Z,19.85
2018-11-20T05:59:09.338Z,18.20
2018-11-20T06:01:51.555Z,18.75
2018-11-20T06:04:57.873Z,20.55
2018-11-20T06:07:45.135Z,19.70
2018-11-20T06:10:35.799Z,19.50
2018-11-20T06:13:21.411Z,20.57
2018-11-20T06:16:07.502Z,19.73
2018-11-20T06:18:53.300Z,19.55
2018-11-20T06:21:39.226Z,18.83
2018-11-20T06:24:26.915Z,21.27
2018-11-20T06:27:17.941Z,22.25
2018-11-20T06:30:05.316Z,19.80
2018-11-20T06:32:51.561Z,21.17
2018-11-20T06:35:37.771Z,20.10
2018-11-20T06:38:19.345Z,20.43
2018-11-20T06:41:17.233Z,21.93
2018-11-20T06:44:09.346Z,20.40
2018-11-20T06:47:00.475Z,21.15
2018-11-20T06:49:50.726Z,19.37
2018-11-20T06:52:37.209Z,21.60
2018-11-20T06:55:25.919Z,20.82
2018-11-20T06:58:08.169Z,23.18
2018-11-20T07:00:55.204Z,21.50
2018-11-20T07:03:48.110Z,20.08
2018-11-20T07:06:37.368Z,22.32
2018-11-20T07:09:26.716Z,23.10
2018-11-20T07:12:16.833Z,20.32
2018-11-20T07:15:06.206Z,20.77
2018-11-20T07:17:59.641Z,20.05
2018-11-20T07:21:05.296Z,19.70
2018-11-20T07:23:55.518Z,20.43
2018-11-20T07:26:41.998Z,20.23
2018-11-20T07:29:29.314Z,21.20
2018-11-20T07:32:16.103Z,18.52
2018-11-20T07:35:02.030Z,22.02
2018-11-20T07:37:59.343Z,20.33
2018-11-20T07:40:44.341Z,19.87
2018-11-20T07:43:31.158Z,21.53
2018-11-20T07:46:07.725Z,19.77
2018-11-20T07:48:54.040Z,20.50
2018-11-20T07:51:44.949Z,20.73
2018-11-20T07:54:40.895Z,20.33
2018-11-20T07:57:28.298Z,23.50
2018-11-20T08:00:18.692Z,19.07
2018-11-20T08:03:11.812Z,19.97
2018-11-20T08:05:54.192Z,20.20
2018-11-20T08:08:49.981Z,21.87
2018-11-20T08:11:29.335Z,23.83
2018-11-20T08:14:12.418Z,21.43
2018-11-20T08:16:53.924Z,20.43
2018-11-20T08:19:44.247Z,22.07
2018-11-20T08:22:33.574Z,20.17
2018-11-20T08:25:22.011Z,22.03
2018-11-20T08:28:17.296Z,20.20
2018-11-20T08:31:13.908Z,19.37
2018-11-20T08:34:10.087Z,21.40
2018-11-20T08:36:52.472Z,19.37
2018-11-20T08:39:48.439Z,21.50
2018-11-20T08:42:34.873Z,19.97
2018-11-20T08:45:32.398Z,21.03
2018-11-20T08:48:32.550Z,20.20
2018-11-20T08:51:15.094Z,19.63
2018-11-20T08:54:01.243Z,20.23
2018-11-20T08:56:54.946Z,20.50
2018-11-20T08:59:42.678Z,20.53
2018-11-20T09:02:29.310Z,19.57
2018-11-20T09:05:25.767Z,20.57
2018-11-20T09:08:12.147Z,21.70
2018-11-20T09:10:59.600Z,19.20
2018-11-20T09:14:05.738Z,20.07
2018-11-20T09:16:59.711Z,18.63
2018-11-20T09:19:45.808Z,20.50
2018-11-20T09:22:29.995Z,20.40
2018-11-20T09:25:19.986Z,19.70
2018-11-20T09:28:02.531Z,21.40
2018-11-20T09:30:53.852Z,20.67
2018-11-20T09:33:39.647Z,20.50
2018-11-20T09:36:18.366Z,20.97
2018-11-20T09:39:00.231Z,21.80
2018-11-20T09:41:38.948Z,20.20
2018-11-20T09:44:39.025Z,20.97
2018-11-20T09:47:34.992Z,20.50
2018-11-20T09:50:35.347Z,21.87
2018-11-20T09:53:16.249Z,19.73
2018-11-20T09:56:09.413Z,20.23
2018-11-20T09:58:44.828Z,20.57
2018-11-20T10:01:21.564Z,19.80
2018-11-20T10:03:56.981Z,19.90
2018-11-20T10:06:49.146Z,20.63
2018-11-20T10:09:49.391Z,21.07
2018-11-20T10:12:36.683Z,19.73
2018-11-20T10:15:37.097Z,18.93
2018-11-20T10:18:33.376Z,20.90
2018-11-20T10:21:23.735Z,20.30
2018-11-20T10:24:29.323Z,21.00
2018-11-20T10:27:19.521Z,21.47
2018-11-20T10:30:05.234Z,21.23
2018-11-20T10:32:50.887Z,22.17
2018-11-20T10:35:38.244Z,19.70
2018-11-20T10:38:26.338Z,20.20
2018-11-20T10:41:19.356Z,22.23
2018-11-20T10:44:08.129Z,19.80
2018-11-20T10:47:01.518Z,20.67
2018-11-20T10:49:47.535Z,19.83
2018-11-20T10:52:44.229Z,20.40
2018-11-20T10:55:30.393Z,22.00
2018-11-20T10:58:19.196Z,20.00
2018-11-20T11:01:05.672Z,21.67
2018-11-20T11:03:51.518Z,19.57
2018-11-20T11:06:37.811Z,21.37
2018-11-20T11:09:28.525Z,20.83
2018-11-20T11:12:13.730Z,20.93
2018-11-20T11:15:00.093Z,22.47
2018-11-20T11:17:48.034Z,19.20
2018-11-20T11:20:36.177Z,19.93
2018-11-20T11:23:23.743Z,20.10
2018-11-20T11:26:11.143Z,18.77
2018-11-20T11:28:57.050Z,21.87
2018-11-20T11:31:53.179Z,22.67
2018-11-20T11:34:43.541Z,20.80
2018-11-20T11:37:19.884Z,22.87
2018-11-20T11:40:03.669Z,20.50
2018-11-20T11:42:52.979Z,19.57
2018-11-20T11:45:42.432Z,21.23
2018-11-20T11:48:43.428Z,20.73
2018-11-20T11:51:28.348Z,21.17
2018-11-20T11:54:11.564Z,21.23
2018-11-20T11:56:51.544Z,21.20
2018-11-20T11:59:57.091Z,20.23
2018-11-20T12:05:35.775Z,20.70
2018-11-20T12:08:13.735Z,21.83
2018-11-20T12:11:04.917Z,20.03
2018-11-20T12:14:00.124Z,21.10
2018-11-20T12:16:56.785Z,20.60
2018-11-20T12:19:46.933Z,19.40
2018-11-20T12:22:38.732Z,19.10
2018-11-20T12:25:42.570Z,18.60
2018-11-20T12:28:27.634Z,18.90
2018-11-20T12:31:11.833Z,18.20
2018-11-20T12:33:52.832Z,17.67
2018-11-20T12:36:32.870Z,19.27
2018-11-20T12:39:29.246Z,18.17
2018-11-20T12:42:22.394Z,17.57
2018-11-20T12:45:00.673Z,18.20
2018-11-20T12:47:57.413Z,17.80
2018-11-20T12:51:03.289Z,19.47
2018-11-20T12:53:42.821Z,16.23
2018-11-20T12:56:49.223Z,16.90
2018-11-20T12:59:53.852Z,17.27
2018-11-20T13:02:40.131Z,16.53
2018-11-20T13:05:17.318Z,15.70
2018-11-20T13:08:20.790Z,16.47
2018-11-20T13:11:06.626Z,16.40
2018-11-20T13:14:07.339Z,16.17
2018-11-20T13:17:07.088Z,16.17
2018-11-20T13:19:52.796Z,16.00
2018-11-20T13:22:43.888Z,17.33
2018-11-20T13:25:31.194Z,15.53
2018-11-20T13:28:21.478Z,16.23
2018-11-20T13:31:07.530Z,16.13
2018-11-20T13:33:51.929Z,15.07
2018-11-20T13:36:45.895Z,16.50
2018-11-20T13:39:37.587Z,16.73
2018-11-20T13:42:33.557Z,15.80
2018-11-20T13:45:24.872Z,15.30
2018-11-20T13:48:13.183Z,15.03
2018-11-20T13:50:46.848Z,14.10
2018-11-20T13:53:25.406Z,15.73
2018-11-20T13:56:12.762Z,16.33
2018-11-20T13:58:58.855Z,15.80
2018-11-20T14:01:45.261Z,16.13
2018-11-20T14:04:41.291Z,15.67
2018-11-20T14:07:34.658Z,17.20
2018-11-20T14:10:28.079Z,15.50
2018-11-20T14:13:11.662Z,16.10
2018-11-20T14:15:52.976Z,16.63
2018-11-20T14:18:42.912Z,19.20
2018-11-20T14:21:48.179Z,15.60
2018-11-20T14:24:34.888Z,16.27
2018-11-20T14:27:21.953Z,19.03
2018-11-20T14:30:09.321Z,16.83
2018-11-20T14:33:15.060Z,16.00
2018-11-20T14:36:08.221Z,16.70
2018-11-20T14:38:47.348Z,16.30
2018-11-20T14:41:35.762Z,16.23
2018-11-20T14:44:20.863Z,16.67
2018-11-20T14:47:07.076Z,16.00
2018-11-20T14:49:56.511Z,18.27
2018-11-20T14:52:46.631Z,19.10
2018-11-20T14:55:42.059Z,17.97
2018-11-20T14:58:35.048Z,19.73
2018-11-20T15:01:22.030Z,17.57
2018-11-20T15:03:58.294Z,19.10
2018-11-20T15:06:49.406Z,19.30
2018-11-20T15:10:33.589Z,20.90
2018-11-20T15:13:30.505Z,19.30
2018-11-20T15:16:05.581Z,19.13
2018-11-20T15:18:52.784Z,19.47
2018-11-20T15:21:33.652Z,19.60
2018-11-20T15:24:20.731Z,17.93
2018-11-20T15:27:06.061Z,19.57
2018-11-20T15:29:51.491Z,18.93
2018-11-20T15:32:45.594Z,21.10
2018-11-20T15:35:56.409Z,20.20
2018-11-20T15:38:33.351Z,18.87
2018-11-20T15:41:45.137Z,20.43
2018-11-20T15:44:47.057Z,19.40
2018-11-20T15:47:40.902Z,20.30
2018-11-20T15:50:18.928Z,22.43
2018-11-20T15:53:09.917Z,21.00
2018-11-20T15:56:02.324Z,18.93
2018-11-20T15:58:46.644Z,19.97
2018-11-20T16:01:36.513Z,21.23
2018-11-20T16:04:23.157Z,20.63
2018-11-20T16:07:08.834Z,20.57
2018-11-20T16:10:15.892Z,22.43
2018-11-20T16:13:02.106Z,21.57
2018-11-20T16:15:52.603Z,20.83
2018-11-20T16:18:31.276Z,19.23
2018-11-20T16:21:16.758Z,22.90
2018-11-20T16:24:01.966Z,19.67
2018-11-20T16:27:03.676Z,19.10
2018-11-20T16:30:07.376Z,22.00
2018-11-20T16:32:53.936Z,20.40
2018-11-20T16:35:48.272Z,21.13
2018-11-20T16:38:48.917Z,21.23
2018-11-20T16:41:34.239Z,20.57
2018-11-20T16:44:19.772Z,21.80
2018-11-20T16:47:13.019Z,20.20
2018-11-20T16:50:01.141Z,20.40
2018-11-20T16:52:46.489Z,22.30
2018-11-20T16:55:55.042Z,21.70
2018-11-20T16:58:38.645Z,20.50
2018-11-20T17:01:43.313Z,20.27
2018-11-20T17:04:34.996Z,20.60
2018-11-20T17:07:22.960Z,20.87
2018-11-20T17:10:10.162Z,20.33
2018-11-20T17:12:56.837Z,22.20
2018-11-20T17:15:47.732Z,20.47
2018-11-20T17:18:38.812Z,21.77
2018-11-20T17:21:20.622Z,21.90
2018-11-20T17:24:06.282Z,22.57
2018-11-20T17:26:52.600Z,23.77
2018-11-20T17:29:42.190Z,22.67
2018-11-20T17:32:29.798Z,19.93
2018-11-20T17:35:21.120Z,21.33
2018-11-20T17:38:36.881Z,21.73
2018-11-20T17:41:35.068Z,21.37
2018-11-20T17:44:10.672Z,20.67
2018-11-20T17:46:52.272Z,23.20
2018-11-20T17:49:38.579Z,22.60
2018-11-20T17:52:23.548Z,22.33
2018-11-20T17:55:10.132Z,20.83
2018-11-20T17:57:57.149Z,20.80
2018-11-20T18:00:48.510Z,22.53
2018-11-20T18:03:48.520Z,20.80
2018-11-20T18:06:34.022Z,21.30
2018-11-20T18:09:09.885Z,22.40
2018-11-20T18:11:55.375Z,20.47
2018-11-20T18:14:54.463Z,20.90
2018-11-20T18:17:41.212Z,20.77
2018-11-20T18:20:27.620Z,20.00
2018-11-20T18:23:35.008Z,21.43
2018-11-20T18:26:23.126Z,20.37
2018-11-20T18:29:20.847Z,20.80
2018-11-20T18:32:07.822Z,18.73
2018-11-20T18:34:53.234Z,21.37
2018-11-20T18:37:50.945Z,20.40
2018-11-20T18:41:04.707Z,20.83
2018-11-20T18:43:54.456Z,23.50
2018-11-20T18:46:51.659Z,21.83
2018-11-20T18:49:42.348Z,20.90
2018-11-20T18:52:27.663Z,21.80
2018-11-20T18:55:29.379Z,20.80
2018-11-20T18:58:20.671Z,19.80
2018-11-20T19:01:12.992Z,21.83
2018-11-20T19:04:02.897Z,22.90
2018-11-20T19:06:59.161Z,20.60
2018-11-20T19:09:55.775Z,20.87
2018-11-20T19:12:42.540Z,20.73
2018-11-20T19:15:40.720Z,20.90
2018-11-20T19:18:15.242Z,20.30
2018-11-20T19:20:58.894Z,20.77
2018-11-20T19:23:58.668Z,22.40
2018-11-20T19:26:44.833Z,19.90
2018-11-20T19:29:29.464Z,18.70
2018-11-20T19:32:13.045Z,18.77
2018-11-20T19:34:59.110Z,21.83
2018-11-20T19:38:05.309Z,19.70
2018-11-20T19:41:01.106Z,20.73
2018-11-20T19:43:46.755Z,20.20
2018-11-20T19:46:30.828Z,24.17
2018-11-20T19:49:10.878Z,21.60
2018-11-20T19:52:01.002Z,21.57
2018-11-20T19:54:44.228Z,22.40
2018-11-20T19:57:37.500Z,19.80
2018-11-20T20:00:28.894Z,19.07
2018-11-20T20:03:18.464Z,18.80
2018-11-20T20:06:17.662Z,22.20
2018-11-20T20:09:20.918Z,19.37
2018-11-20T20:12:06.666Z,19.00
2018-11-20T20:15:08.181Z,21.00
2018-11-20T20:17:49.386Z,18.60
2018-11-20T20:20:35.768Z,20.60
2018-11-20T20:23:40.666Z,20.60
2018-11-20T20:26:22.812Z,19.60
2018-11-20T20:29:09.559Z,20.37
2018-11-20T20:31:47.001Z,20.87
2018-11-20T20:34:32.690Z,18.53
2018-11-20T20:37:20.960Z,21.10
2018-11-20T20:40:03.455Z,20.80
2018-11-20T20:42:48.746Z,20.53
2018-11-20T20:45:31.165Z,22.00
2018-11-20T20:48:25.455Z,19.27
2018-11-20T20:51:22.219Z,20.00
2018-11-20T20:54:02.765Z,21.23
2018-11-20T20:56:46.066Z,21.73
2018-11-20T20:59:32.315Z,18.70
2018-11-20T21:02:20.391Z,19.57
2018-11-20T21:05:16.809Z,20.30
2018-11-20T21:08:11.030Z,23.67
2018-11-20T21:11:01.458Z,25.73
2018-11-20T21:13:49.802Z,38.70
2018-11-20T21:16:37.297Z,50.50
2018-11-20T21:19:24.200Z,61.17
2018-11-20T21:22:21.393Z,31.33
2018-11-20T21:25:15.717Z,24.37
2018-11-20T21:28:05.253Z,18.90
2018-11-20T21:30:50.782Z,18.40
2018-11-20T21:33:45.592Z,21.27
2018-11-20T21:36:38.436Z,18.97
2018-11-20T21:39:40.582Z,27.57
2018-11-20T21:42:20.975Z,22.10
2018-11-20T21:45:07.119Z,21.20
2018-11-20T21:48:00.358Z,19.00
2018-11-20T21:50:46.317Z,19.90
2018-11-20T21:53:42.798Z,24.50
2018-11-20T21:56:29.867Z,20.80
2018-11-20T21:59:17.618Z,21.07
2018-11-20T22:02:04.904Z,19.10
2018-11-20T22:04:43.502Z,19.77
2018-11-20T22:07:27.964Z,20.60
2018-11-20T22:10:14.928Z,20.97
2018-11-20T22:13:13.251Z,19.30
2018-11-20T22:15:58.685Z,19.40
2018-11-20T22:18:52.010Z,17.90
2018-11-20T22:21:42.071Z,20.43
2018-11-20T22:24:39.968Z,20.87
2018-11-20T22:27:26.548Z,19.90
2018-11-20T22:30:18.403Z,19.70
2018-11-20T22:33:03.402Z,20.60
2018-11-20T22:35:44.993Z,20.13
2018-11-20T22:38:20.329Z,21.40
2018-11-20T22:41:05.662Z,20.27
2018-11-20T22:43:43.010Z,20.23
2018-11-20T22:46:39.704Z,21.97
2018-11-20T22:49:34.901Z,20.70
2018-11-20T22:52:41.184Z,20.63
2018-11-20T22:55:54.487Z,20.80
2018-11-20T22:58:56.296Z,20.43
2018-11-20T23:01:57.696Z,19.27
2018-11-20T23:05:04.548Z,20.27
2018-11-20T23:07:51.104Z,17.60
2018-11-20T23:10:19.116Z,21.27
2018-11-20T23:12:46.036Z,20.03
2018-11-20T23:15:15.058Z,21.80
2018-11-20T23:17:42.058Z,21.13
2018-11-20T23:20:09.803Z,19.83
2018-11-20T23:22:38.764Z,20.20
2018-11-20T23:25:08.772Z,20.63
2018-11-20T23:27:35.639Z,21.43
2018-11-20T23:30:03.157Z,21.37
2018-11-20T23:32:35.815Z,21.33
2018-11-20T23:35:09.246Z,19.60
2018-11-20T23:37:42.525Z,21.80
2018-11-20T23:40:10.585Z,20.43
2018-11-20T23:42:38.737Z,21.13
2018-11-20T23:45:07.601Z,20.63
2018-11-20T23:47:34.405Z,21.07
2018-11-20T23:50:01.263Z,19.33
2018-11-20T23:52:28.243Z,21.97
2018-11-20T23:54:55.166Z,19.27
2018-11-20T23:57:22.060Z,20.80
2018-11-20T23:59:49.113Z,21.20
